createdAt,value
2023-01-18T04:30:41.720Z,14.50
2023-01-18T04:31:42.703Z,14.70
2023-01-18T04:32:42.676Z,14.60
2023-01-18T04:33:42.678Z,17.50
2023-01-18T04:34:42.658Z,15.80
2023-01-18T04:35:42.720Z,16.90
2023-01-18T04:36:42.670Z,15.80
2023-01-18T04:37:42.665Z,14.80
2023-01-18T04:38:42.592Z,13.80
2023-01-18T04:39:42.596Z,15.60
2023-01-18T04:40:42.628Z,15.20
2023-01-18T04:41:42.622Z,14.40
2023-01-18T04:42:42.607Z,15.00
2023-01-18T04:43:42.562Z,14.00
2023-01-18T04:44:42.586Z,14.60
2023-01-18T04:45:42.540Z,13.20
2023-01-18T04:46:42.556Z,13.40
2023-01-18T04:47:42.527Z,15.60
2023-01-18T04:48:42.531Z,13.30
2023-01-18T04:49:42.528Z,13.30
2023-01-18T04:50:42.504Z,15.30
2023-01-18T04:51:42.479Z,13.40
2023-01-18T04:52:42.453Z,13.60
2023-01-18T04:53:42.497Z,14.80
2023-01-18T04:54:42.419Z,13.90
2023-01-18T04:55:42.526Z,14.40
2023-01-18T04:56:42.431Z,14.80
2023-01-18T04:57:42.448Z,12.90
2023-01-18T04:58:42.383Z,15.10
2023-01-18T04:59:42.414Z,13.90
2023-01-18T05:00:42.413Z,13.60
2023-01-18T05:01:42.387Z,15.60
2023-01-18T05:02:42.406Z,14.50
2023-01-18T05:03:42.399Z,14.30
2023-01-18T05:04:42.336Z,15.50
2023-01-18T05:05:42.541Z,16.40
2023-01-18T05:06:42.335Z,15.90
2023-01-18T05:07:42.317Z,14.40
2023-01-18T05:08:42.344Z,14.70
2023-01-18T05:09:42.289Z,15.30
2023-01-18T05:10:42.324Z,15.30
2023-01-18T05:11:42.228Z,17.30
2023-01-18T05:12:42.280Z,16.00
2023-01-18T05:13:42.228Z,17.60
2023-01-18T05:14:42.260Z,15.10
2023-01-18T05:15:42.181Z,17.30
2023-01-18T05:16:42.256Z,17.00
2023-01-18T05:17:42.164Z,16.20
2023-01-18T05:18:42.243Z,16.50
2023-01-18T05:19:42.138Z,17.30
2023-01-18T05:20:42.160Z,17.80
2023-01-18T05:21:42.267Z,16.70
2023-01-18T05:22:42.140Z,18.00
2023-01-18T05:23:42.099Z,17.00
2023-01-18T05:24:42.153Z,18.20
2023-01-18T05:25:42.092Z,17.40
2023-01-18T05:26:42.097Z,18.80
2023-01-18T05:27:42.106Z,16.80
2023-01-18T05:28:42.076Z,17.70
2023-01-18T05:29:42.084Z,17.10
2023-01-18T05:30:42.162Z,17.00
2023-01-18T05:31:42.074Z,20.80
2023-01-18T05:32:42.039Z,20.80
2023-01-18T05:33:42.006Z,17.70
2023-01-18T05:34:42.013Z,17.90
2023-01-18T05:35:42.016Z,18.60
2023-01-18T05:36:41.990Z,18.40
2023-01-18T05:37:42.081Z,18.30
2023-01-18T05:38:41.965Z,19.70
2023-01-18T05:39:42.026Z,18.70
2023-01-18T05:40:41.989Z,18.60
2023-01-18T05:41:41.952Z,20.40
2023-01-18T05:42:41.948Z,21.70
2023-01-18T05:43:41.934Z,19.40
2023-01-18T05:44:41.892Z,20.90
2023-01-18T05:45:41.924Z,19.80
2023-01-18T05:46:41.931Z,19.50
2023-01-18T05:47:41.845Z,19.10
2023-01-18T05:48:42.465Z,19.10
2023-01-18T05:49:42.148Z,21.10
2023-01-18T05:50:41.816Z,20.80
2023-01-18T05:51:41.905Z,19.40
2023-01-18T05:52:41.865Z,19.60
2023-01-18T05:53:41.795Z,22.00
2023-01-18T05:54:42.623Z,20.10
2023-01-18T05:55:41.750Z,21.20
2023-01-18T05:56:41.938Z,20.70
2023-01-18T05:57:41.793Z,24.80
2023-01-18T05:58:41.777Z,22.40
2023-01-18T05:59:41.754Z,21.90
2023-01-18T06:00:41.706Z,24.00
2023-01-18T06:01:42.525Z,21.50
2023-01-18T06:02:41.745Z,21.20
2023-01-18T06:03:41.677Z,22.30
2023-01-18T06:04:42.715Z,20.80
2023-01-18T06:05:41.690Z,21.60
2023-01-18T06:06:41.657Z,23.80
2023-01-18T06:07:41.621Z,18.20
2023-01-18T06:08:41.637Z,19.70
2023-01-18T06:09:43.070Z,20.70
2023-01-18T06:10:41.666Z,21.40
2023-01-18T06:11:41.591Z,26.00
2023-01-18T06:12:41.582Z,22.90
2023-01-18T06:13:41.578Z,22.70
2023-01-18T06:14:41.575Z,21.90
2023-01-18T06:15:41.529Z,20.50
2023-01-18T06:16:41.592Z,22.80
2023-01-18T06:17:41.514Z,20.30
2023-01-18T06:18:41.513Z,19.10
2023-01-18T06:19:41.534Z,20.90
2023-01-18T06:20:41.534Z,22.00
2023-01-18T06:21:41.526Z,21.20
2023-01-18T06:22:41.519Z,21.30
2023-01-18T06:23:41.488Z,20.60
2023-01-18T06:24:41.475Z,22.40
2023-01-18T06:25:41.494Z,21.80
2023-01-18T06:26:41.458Z,22.30
2023-01-18T06:27:41.421Z,23.70
2023-01-18T06:28:41.523Z,20.90
2023-01-18T06:31:23.521Z,22.70
2023-01-18T06:32:24.290Z,24.70
2023-01-18T06:33:24.319Z,22.90
2023-01-18T06:34:24.309Z,23.60
2023-01-18T06:35:24.241Z,20.90
2023-01-18T06:36:24.248Z,21.30
2023-01-18T06:37:24.316Z,22.30
2023-01-18T06:38:24.226Z,20.80
2023-01-18T06:39:24.265Z,21.60
2023-01-18T06:40:24.215Z,23.30
2023-01-18T06:41:24.506Z,21.80
2023-01-18T06:42:24.274Z,23.30
2023-01-18T06:43:24.174Z,21.50
2023-01-18T06:44:24.198Z,21.80
2023-01-18T06:45:24.255Z,22.50
2023-01-18T06:46:24.154Z,23.10
2023-01-18T06:47:24.108Z,22.50
2023-01-18T06:48:24.399Z,21.70
2023-01-18T06:49:24.218Z,21.80
2023-01-18T06:50:24.182Z,22.60
2023-01-18T06:51:24.193Z,21.60
2023-01-18T06:52:24.293Z,19.80
2023-01-18T06:53:25.322Z,21.20
2023-01-18T06:54:24.239Z,24.20
2023-01-18T06:55:24.164Z,22.80
2023-01-18T06:56:24.226Z,20.40
2023-01-18T06:57:24.100Z,22.80
2023-01-18T06:58:24.128Z,22.60
2023-01-18T06:59:24.043Z,20.50
2023-01-18T07:00:24.045Z,24.00
2023-01-18T07:01:24.114Z,22.10
2023-01-18T07:02:23.981Z,20.50
2023-01-18T07:03:24.032Z,22.10
2023-01-18T07:04:24.063Z,23.90
2023-01-18T07:05:23.973Z,22.80
2023-01-18T07:06:23.990Z,22.70
2023-01-18T07:07:23.947Z,25.80
2023-01-18T07:08:23.922Z,23.60
2023-01-18T07:09:24.060Z,22.80
2023-01-18T07:10:23.988Z,22.30
2023-01-18T07:11:23.903Z,21.70
2023-01-18T07:12:23.867Z,23.70
2023-01-18T07:13:23.833Z,23.50
2023-01-18T07:14:23.875Z,22.70
2023-01-18T07:15:23.822Z,21.80
2023-01-18T07:16:23.827Z,23.00
2023-01-18T07:17:23.780Z,20.90
2023-01-18T07:18:23.796Z,21.60
2023-01-18T07:19:23.774Z,23.20
2023-01-18T07:20:23.846Z,21.40
2023-01-18T07:21:23.765Z,19.10
2023-01-18T07:22:23.822Z,20.20
2023-01-18T07:23:23.726Z,21.60
2023-01-18T07:24:23.728Z,21.30
2023-01-18T07:25:23.736Z,21.10
2023-01-18T07:26:23.746Z,19.70
2023-01-18T07:27:23.699Z,19.30
2023-01-18T07:28:23.687Z,20.10
2023-01-18T07:29:23.778Z,22.30
2023-01-18T07:30:23.745Z,21.00
2023-01-18T07:31:23.856Z,20.60
2023-01-18T07:32:23.674Z,20.20
2023-01-18T07:33:23.617Z,21.50
2023-01-18T07:34:23.711Z,21.10
2023-01-18T07:35:23.711Z,20.80
2023-01-18T07:36:23.660Z,20.90
2023-01-18T07:37:23.652Z,19.80
2023-01-18T07:38:23.721Z,18.80
2023-01-18T07:39:23.580Z,19.10
2023-01-18T07:40:23.538Z,21.00
2023-01-18T07:41:23.535Z,19.80
2023-01-18T07:42:23.569Z,19.80
2023-01-18T07:43:23.526Z,20.60
2023-01-18T07:44:23.532Z,20.70
2023-01-18T07:45:23.483Z,20.50
2023-01-18T07:46:23.619Z,19.80
2023-01-18T07:47:23.497Z,19.90
2023-01-18T07:48:23.515Z,19.50
2023-01-18T07:49:24.485Z,19.20
2023-01-18T07:50:23.444Z,21.10
2023-01-18T07:51:23.405Z,19.60
2023-01-18T07:52:23.426Z,21.30
2023-01-18T07:53:23.515Z,20.90
2023-01-18T07:54:23.399Z,19.00
2023-01-18T07:55:23.364Z,18.60
2023-01-18T07:56:23.370Z,18.40
2023-01-18T07:57:23.554Z,17.00
2023-01-18T07:58:23.348Z,18.70
2023-01-18T07:59:23.398Z,18.80
2023-01-18T08:00:23.368Z,19.00
2023-01-18T08:01:23.503Z,17.40
2023-01-18T08:02:23.397Z,17.70
2023-01-18T08:03:23.324Z,17.30
2023-01-18T08:04:23.302Z,18.20
2023-01-18T08:05:23.355Z,20.80
2023-01-18T08:06:23.374Z,20.20
2023-01-18T08:07:23.284Z,20.60
2023-01-18T08:08:24.018Z,17.80
2023-01-18T08:09:23.299Z,18.50
2023-01-18T08:10:23.269Z,20.80
2023-01-18T08:11:23.278Z,18.90
2023-01-18T08:12:23.455Z,19.00
2023-01-18T08:13:23.256Z,20.10
2023-01-18T08:14:23.251Z,22.10
2023-01-18T08:15:23.212Z,18.90
2023-01-18T08:16:23.208Z,17.30
2023-01-18T08:17:23.165Z,18.70
2023-01-18T08:18:23.174Z,19.90
2023-01-18T08:19:23.172Z,18.10
2023-01-18T08:20:23.173Z,18.50
2023-01-18T08:21:23.202Z,19.60
2023-01-18T08:22:23.170Z,18.10
2023-01-18T08:23:23.144Z,20.10
2023-01-18T08:24:23.090Z,19.20
2023-01-18T08:25:23.435Z,17.20
2023-01-18T08:26:23.135Z,17.50
2023-01-18T08:27:25.251Z,20.90
2023-01-18T08:28:23.184Z,18.30
2023-01-18T08:29:23.390Z,18.50
2023-01-18T08:30:23.094Z,17.80
2023-01-18T08:31:23.959Z,16.50
2023-01-18T08:32:23.435Z,17.00
2023-01-18T08:33:23.004Z,18.10
2023-01-18T08:34:23.058Z,18.20
2023-01-18T08:35:23.860Z,17.50
2023-01-18T08:36:22.966Z,15.30
2023-01-18T08:37:22.944Z,17.10
2023-01-18T08:38:23.541Z,18.40
2023-01-18T08:39:22.975Z,17.60
2023-01-18T08:40:22.941Z,18.30
2023-01-18T08:41:22.927Z,18.60
2023-01-18T08:42:22.938Z,16.30
2023-01-18T08:43:22.915Z,15.90
2023-01-18T08:44:22.938Z,17.30
2023-01-18T08:45:22.940Z,15.00
2023-01-18T08:46:22.915Z,15.20
2023-01-18T08:47:22.824Z,14.90
2023-01-18T08:48:22.888Z,14.70
2023-01-18T08:49:22.791Z,17.40
2023-01-18T08:50:22.875Z,14.60
2023-01-18T08:51:22.787Z,14.90
2023-01-18T08:52:22.835Z,14.80
2023-01-18T08:53:22.942Z,16.30
2023-01-18T08:54:22.902Z,15.60
2023-01-18T08:55:22.819Z,15.60
2023-01-18T08:56:22.834Z,16.30
2023-01-18T08:57:22.939Z,17.20
2023-01-18T08:58:23.152Z,18.20
2023-01-18T08:59:22.922Z,17.40
2023-01-18T09:00:22.865Z,17.30
2023-01-18T09:01:22.937Z,18.60
2023-01-18T09:02:22.935Z,15.50
2023-01-18T09:03:22.769Z,17.50
2023-01-18T09:04:22.952Z,16.40
2023-01-18T09:05:22.707Z,15.70
2023-01-18T09:06:23.558Z,15.30
2023-01-18T09:07:22.667Z,16.00
2023-01-18T09:08:22.762Z,15.80
2023-01-18T09:09:22.693Z,16.90
2023-01-18T09:10:22.693Z,16.10
2023-01-18T09:11:22.685Z,14.80
2023-01-18T09:12:22.583Z,17.10
2023-01-18T09:13:22.638Z,16.70
2023-01-18T09:14:22.643Z,15.60
2023-01-18T09:15:22.524Z,18.00
2023-01-18T09:16:22.647Z,14.50
2023-01-18T09:17:22.572Z,17.80
2023-01-18T09:18:22.587Z,16.00
2023-01-18T09:19:22.704Z,15.50
2023-01-18T09:20:22.559Z,15.90
2023-01-18T09:21:22.627Z,16.70
2023-01-18T09:22:22.559Z,15.20
2023-01-18T09:23:22.606Z,14.70
2023-01-18T09:24:22.552Z,15.80
2023-01-18T09:25:22.596Z,14.90
2023-01-18T09:26:22.716Z,15.90
2023-01-18T09:27:22.519Z,15.00
2023-01-18T09:28:22.539Z,16.70
2023-01-18T09:29:22.441Z,16.70
2023-01-18T09:30:23.534Z,14.90
2023-01-18T09:31:22.561Z,16.30
2023-01-18T09:32:22.413Z,15.70
2023-01-18T09:33:22.474Z,15.40
2023-01-18T09:34:22.478Z,16.90
2023-01-18T09:35:22.421Z,15.20
2023-01-18T09:36:22.423Z,15.10
2023-01-18T09:37:22.387Z,15.60
2023-01-18T09:38:22.480Z,13.80
2023-01-18T09:39:22.462Z,15.20
2023-01-18T09:40:22.347Z,15.00
2023-01-18T09:41:22.407Z,16.80
2023-01-18T09:42:22.350Z,15.30
2023-01-18T09:43:22.398Z,14.60
2023-01-18T09:44:22.334Z,14.90
2023-01-18T09:45:22.436Z,13.90
2023-01-18T09:46:22.502Z,15.80
2023-01-18T09:47:22.328Z,15.60
2023-01-18T09:48:22.215Z,16.20
2023-01-18T09:49:22.469Z,14.90
2023-01-18T09:50:22.299Z,15.70
2023-01-18T09:51:22.236Z,14.90
2023-01-18T09:52:22.275Z,16.50
2023-01-18T09:53:22.272Z,17.50
2023-01-18T09:54:22.342Z,15.60
2023-01-18T09:55:22.173Z,15.70
2023-01-18T09:56:22.538Z,17.40
2023-01-18T09:57:22.127Z,16.20
2023-01-18T09:58:22.303Z,14.50
2023-01-18T09:59:22.130Z,14.50
2023-01-18T10:00:22.226Z,15.80
2023-01-18T10:01:22.312Z,14.70
2023-01-18T10:02:22.249Z,15.50
2023-01-18T10:03:23.003Z,14.50
2023-01-18T10:04:22.080Z,14.70
2023-01-18T10:05:22.074Z,13.70
2023-01-18T10:06:22.055Z,11.80
2023-01-18T10:07:22.029Z,13.10
2023-01-18T10:08:22.059Z,13.30
2023-01-18T10:09:22.145Z,12.50
2023-01-18T10:10:22.088Z,14.60
2023-01-18T10:11:22.019Z,13.10
2023-01-18T10:12:21.988Z,13.30
2023-01-18T10:13:22.087Z,14.10
2023-01-18T10:14:22.069Z,14.80
2023-01-18T10:15:22.169Z,14.50
2023-01-18T10:16:22.065Z,13.00
2023-01-18T10:17:21.915Z,14.20
2023-01-18T10:18:21.829Z,14.20
2023-01-18T10:19:21.871Z,12.90
2023-01-18T10:20:22.045Z,15.20
2023-01-18T10:21:22.280Z,14.10
2023-01-18T10:22:21.973Z,14.30
2023-01-18T10:23:22.929Z,13.80
2023-01-18T10:24:21.843Z,13.60
2023-01-18T10:25:21.944Z,14.10
2023-01-18T10:26:21.912Z,13.80
2023-01-18T10:27:22.139Z,14.00
2023-01-18T10:28:21.852Z,13.40
2023-01-18T10:29:21.759Z,15.30
2023-01-18T10:30:21.927Z,19.10
2023-01-18T10:31:23.170Z,13.30
2023-01-18T10:32:21.848Z,14.80
2023-01-18T10:33:21.774Z,13.10
2023-01-18T10:34:21.759Z,16.40
2023-01-18T10:35:21.840Z,15.70
2023-01-18T10:36:21.893Z,16.30
2023-01-18T10:37:21.742Z,13.90
2023-01-18T10:38:21.815Z,15.10
2023-01-18T10:39:21.904Z,14.20
2023-01-18T10:40:22.111Z,13.80
2023-01-18T10:41:21.719Z,13.30
2023-01-18T10:42:21.769Z,14.90
2023-01-18T10:43:21.875Z,14.40
2023-01-18T10:44:22.492Z,16.10
2023-01-18T10:45:21.748Z,13.20
2023-01-18T10:46:22.518Z,13.10
2023-01-18T10:47:21.706Z,14.10
2023-01-18T10:48:22.042Z,13.70
2023-01-18T10:49:22.030Z,13.90
2023-01-18T10:50:21.842Z,16.20
2023-01-18T10:51:22.953Z,13.90
2023-01-18T10:52:22.062Z,13.80
2023-01-18T10:53:21.615Z,13.20
2023-01-18T10:54:21.698Z,14.80
2023-01-18T10:55:21.705Z,12.30
2023-01-18T10:56:21.660Z,12.50
2023-01-18T10:57:21.587Z,14.80
2023-01-18T10:58:21.624Z,12.30
2023-01-18T10:59:22.416Z,13.50
2023-01-18T11:00:21.637Z,12.20
2023-01-18T11:01:21.696Z,12.90
2023-01-18T11:02:21.539Z,12.00
2023-01-18T11:03:21.517Z,12.50
2023-01-18T11:04:21.372Z,13.10
2023-01-18T11:05:21.511Z,11.90
2023-01-18T11:06:21.655Z,13.70
2023-01-18T11:07:21.353Z,13.60
2023-01-18T11:08:21.471Z,11.50
2023-01-18T11:09:21.397Z,12.90
2023-01-18T11:10:21.530Z,14.20
2023-01-18T11:11:21.242Z,12.90
2023-01-18T11:12:21.435Z,14.00
2023-01-18T11:13:21.284Z,12.40
2023-01-18T11:14:21.317Z,12.30
2023-01-18T11:15:21.266Z,11.60
2023-01-18T11:16:21.417Z,12.40
2023-01-18T11:17:22.417Z,13.00
2023-01-18T11:18:21.187Z,14.50
2023-01-18T11:19:21.319Z,12.10
2023-01-18T11:20:21.340Z,13.40
2023-01-18T11:21:21.248Z,11.00
2023-01-18T11:22:21.208Z,10.90
2023-01-18T11:23:21.238Z,12.10
2023-01-18T11:24:22.081Z,12.50
2023-01-18T11:25:21.188Z,13.00
2023-01-18T11:26:21.443Z,11.40
2023-01-18T11:27:21.182Z,11.80
2023-01-18T11:28:21.128Z,12.10
2023-01-18T11:29:21.208Z,11.00
2023-01-18T11:30:21.249Z,10.20
2023-01-18T11:31:22.175Z,13.50
2023-01-18T11:32:21.164Z,13.90
2023-01-18T11:33:21.108Z,14.50
2023-01-18T11:34:21.093Z,12.40
2023-01-18T11:35:21.240Z,13.40
2023-01-18T11:36:21.069Z,11.20
2023-01-18T11:37:21.234Z,10.70
2023-01-18T11:38:21.079Z,12.60
2023-01-18T11:39:21.083Z,10.90
2023-01-18T11:40:21.021Z,12.10
2023-01-18T11:41:20.989Z,11.30
2023-01-18T11:42:21.196Z,11.10
2023-01-18T11:43:21.011Z,11.40
2023-01-18T11:45:49.959Z,11.50
2023-01-18T11:46:51.432Z,12.50
2023-01-18T11:47:50.641Z,8.90
2023-01-18T11:48:50.386Z,11.90
2023-01-18T11:49:50.373Z,11.30
2023-01-18T11:50:50.360Z,9.30
2023-01-18T11:51:50.425Z,10.80
2023-01-18T11:52:50.381Z,11.20
2023-01-18T11:53:51.002Z,11.60
2023-01-18T11:54:50.257Z,10.30
2023-01-18T11:55:50.421Z,9.70
2023-01-18T11:56:50.421Z,11.40
2023-01-18T11:57:50.340Z,9.00
2023-01-18T12:14:10.394Z,9.00
2023-01-18T12:15:10.758Z,8.70
2023-01-18T12:16:10.247Z,8.60
2023-01-18T12:17:10.194Z,10.90
2023-01-18T13:07:56.522Z,6.20
2023-01-18T13:08:57.571Z,6.90
2023-01-18T13:09:57.033Z,5.30
2023-01-18T13:10:57.026Z,7.40
2023-01-18T13:11:57.224Z,7.30
2023-01-18T13:12:57.023Z,7.50
2023-01-18T13:13:57.135Z,5.30
2023-01-18T13:14:56.905Z,8.70
2023-01-18T13:15:58.467Z,6.60
2023-01-18T13:16:57.105Z,7.80
2023-01-18T13:17:57.654Z,5.30
2023-01-18T13:18:56.945Z,5.30
2023-01-18T13:19:57.108Z,7.00
2023-01-18T13:20:58.115Z,5.40
2023-01-18T13:21:57.501Z,5.50
2023-01-18T13:22:57.050Z,8.10
2023-01-18T13:23:57.688Z,6.70
2023-01-18T13:24:57.446Z,6.10
2023-01-18T13:25:57.586Z,5.60
2023-01-18T13:26:57.123Z,5.00
2023-01-18T13:27:57.285Z,4.40
2023-01-18T13:30:13.366Z,5.40
2023-01-18T13:31:15.110Z,5.40
2023-01-18T13:32:14.263Z,5.30
2023-01-18T13:33:14.475Z,5.20
2023-01-18T13:34:14.856Z,6.80
2023-01-18T13:35:20.483Z,6.20
2023-01-18T13:36:15.163Z,6.00
2023-01-18T13:37:15.342Z,6.90
2023-01-18T13:38:15.617Z,5.50
2023-01-18T13:39:14.269Z,5.70
2023-01-18T13:40:14.136Z,6.10
2023-01-18T13:41:15.338Z,6.00
2023-01-18T13:42:14.107Z,4.20
2023-01-18T13:43:14.961Z,5.80
2023-01-18T13:44:14.813Z,4.90
2023-01-18T13:45:14.336Z,4.50
2023-01-18T13:46:15.133Z,5.80
2023-01-18T13:47:14.373Z,6.40
2023-01-18T13:48:13.962Z,5.90
2023-01-18T13:49:34.874Z,6.00
2023-01-18T13:50:13.951Z,5.90
2023-01-18T13:51:14.040Z,8.00
2023-01-18T13:52:14.353Z,6.20
2023-01-18T13:53:14.091Z,6.30
2023-01-18T13:54:14.740Z,5.30
2023-01-18T13:55:13.977Z,6.80
2023-01-18T13:56:14.113Z,4.90
2023-01-18T13:57:16.614Z,5.90
2023-01-18T13:58:14.026Z,5.60
2023-01-18T13:59:14.768Z,5.90
2023-01-18T14:00:14.328Z,7.70
2023-01-18T14:01:14.070Z,6.40
2023-01-18T14:02:14.125Z,4.80
2023-01-18T14:03:13.973Z,5.90
2023-01-18T14:04:14.133Z,6.40
2023-01-18T14:05:14.975Z,7.10
2023-01-18T14:06:14.046Z,8.20
2023-01-18T14:07:14.694Z,6.30
2023-01-18T14:08:14.014Z,6.80
2023-01-18T14:09:13.840Z,6.70
2023-01-18T14:10:13.679Z,5.90
2023-01-18T14:11:14.042Z,6.70
2023-01-18T14:12:13.860Z,6.20
2023-01-18T14:13:13.783Z,6.10
2023-01-18T14:14:14.785Z,5.00
2023-01-18T14:15:13.943Z,5.10
2023-01-18T14:16:14.069Z,5.80
2023-01-18T14:17:14.121Z,4.80
2023-01-18T14:18:13.795Z,7.90
2023-01-18T14:19:14.851Z,6.30
2023-01-18T14:20:14.240Z,4.90
2023-01-18T14:21:13.759Z,5.90
2023-01-18T14:22:13.921Z,5.30
2023-01-18T14:23:15.412Z,7.00
2023-01-18T14:24:15.564Z,5.80
2023-01-18T14:25:13.697Z,5.50
2023-01-18T14:26:16.273Z,6.50
2023-01-18T14:27:13.553Z,6.50
2023-01-18T14:28:14.376Z,5.20
2023-01-18T14:29:13.686Z,5.30
2023-01-18T14:30:13.811Z,6.60
2023-01-18T14:31:14.859Z,6.20
2023-01-18T14:32:13.689Z,8.40
2023-01-18T14:33:14.156Z,6.00
2023-01-18T14:34:14.443Z,6.00
2023-01-18T14:35:13.969Z,5.90
2023-01-18T14:36:14.306Z,5.60
2023-01-18T14:37:13.960Z,5.90
2023-01-18T14:38:17.811Z,6.60
2023-01-18T14:39:13.793Z,7.90
2023-01-18T14:40:13.623Z,7.80
2023-01-18T14:41:13.598Z,6.00
2023-01-18T14:42:13.595Z,6.40
2023-01-18T14:43:13.433Z,7.30
2023-01-18T14:44:13.648Z,6.90
2023-01-18T14:45:15.447Z,7.90
2023-01-18T14:46:18.359Z,7.30
2023-01-18T14:47:23.586Z,6.60
2023-01-18T14:48:13.950Z,6.70
2023-01-18T14:49:13.543Z,8.90
2023-01-18T14:50:14.199Z,7.00
2023-01-18T14:51:13.300Z,9.10
2023-01-18T14:52:13.425Z,7.90
2023-01-18T14:53:13.625Z,7.40
2023-01-18T14:54:13.307Z,8.00
2023-01-18T14:55:13.634Z,6.30
2023-01-18T14:56:13.379Z,6.90
2023-01-18T14:57:13.729Z,6.40
2023-01-18T14:58:13.458Z,9.50
2023-01-18T14:59:14.309Z,8.80
2023-01-18T15:00:14.131Z,8.50
2023-01-18T15:01:14.027Z,6.20
2023-01-18T15:02:13.996Z,9.00
2023-01-18T15:03:13.281Z,8.30
2023-01-18T15:04:13.423Z,8.30
2023-01-18T15:05:13.281Z,8.70
2023-01-18T15:06:13.529Z,6.90
2023-01-18T15:07:13.629Z,7.40
2023-01-18T15:08:13.546Z,6.70
2023-01-18T15:09:13.308Z,6.20
2023-01-18T15:10:13.102Z,8.60
2023-01-18T15:11:13.797Z,6.40
2023-01-18T15:12:13.192Z,8.00
2023-01-18T15:13:13.455Z,8.00
2023-01-18T15:14:14.887Z,9.10
2023-01-18T15:15:13.444Z,8.60
2023-01-18T15:16:13.986Z,8.30
2023-01-18T15:17:13.222Z,8.70
2023-01-18T15:18:15.438Z,8.60
2023-01-18T15:19:13.935Z,8.00
2023-01-18T15:20:13.068Z,6.90
2023-01-18T15:21:13.126Z,6.20
2023-01-18T15:22:13.715Z,7.50
2023-01-18T15:23:13.023Z,9.50
2023-01-18T15:24:14.001Z,10.00
2023-01-18T15:25:12.898Z,7.30
2023-01-18T15:26:13.304Z,9.80
2023-01-18T15:27:13.271Z,8.60
2023-01-18T15:28:23.339Z,8.50
2023-01-18T15:29:13.165Z,7.30
2023-01-18T15:30:12.964Z,7.60
2023-01-18T15:31:13.990Z,9.30
2023-01-18T15:32:14.361Z,9.40
2023-01-18T15:33:14.351Z,7.30
2023-01-18T15:34:15.167Z,9.00
2023-01-18T15:35:12.840Z,8.30
2023-01-18T15:36:12.809Z,8.00
2023-01-18T15:37:14.441Z,6.40
2023-01-18T15:38:13.349Z,7.70
2023-01-18T15:39:13.387Z,8.40
2023-01-18T15:40:12.732Z,7.70
2023-01-18T15:41:12.672Z,7.30
2023-01-18T15:42:12.716Z,8.60
2023-01-18T15:43:12.731Z,8.10
2023-01-18T15:44:13.090Z,9.50
2023-01-18T15:45:12.868Z,7.00
2023-01-18T15:46:12.740Z,6.60
2023-01-18T15:47:13.075Z,7.20
2023-01-18T15:50:35.144Z,8.10
2023-01-18T15:51:36.553Z,10.00
2023-01-18T15:52:36.095Z,7.90
2023-01-18T15:53:36.243Z,7.50
2023-01-18T15:54:36.158Z,7.10
2023-01-18T15:55:37.013Z,8.40
2023-01-18T15:56:36.376Z,5.90
2023-01-18T15:57:36.201Z,9.00
2023-01-18T15:58:36.357Z,8.80
2023-01-18T15:59:36.200Z,7.60
2023-01-18T16:00:36.092Z,8.00
2023-01-18T16:01:36.179Z,10.60
2023-01-18T16:02:36.494Z,5.80
2023-01-18T16:03:35.988Z,6.20
2023-01-18T16:04:36.015Z,7.20
2023-01-18T16:05:36.123Z,9.00
2023-01-18T16:06:36.085Z,8.90
2023-01-18T16:07:35.862Z,10.00
2023-01-18T16:08:35.926Z,8.00
2023-01-18T16:09:36.011Z,8.30
2023-01-18T16:10:35.794Z,7.30
2023-01-18T16:11:37.805Z,7.20
2023-01-18T16:12:36.756Z,8.10
2023-01-18T16:13:36.282Z,8.30
2023-01-18T16:14:35.819Z,10.10
2023-01-18T16:15:36.826Z,9.60
2023-01-18T16:16:35.896Z,8.20
2023-01-18T16:17:36.171Z,8.60
2023-01-18T16:18:36.024Z,7.30
2023-01-18T16:19:35.882Z,6.80
2023-01-18T16:20:35.909Z,9.30
2023-01-18T16:21:35.915Z,7.40
2023-01-18T16:22:36.040Z,8.20
2023-01-18T16:23:35.695Z,6.70
2023-01-18T16:24:36.117Z,7.70
2023-01-18T16:25:35.869Z,8.70
2023-01-18T16:26:35.963Z,8.40
2023-01-18T16:27:35.841Z,7.30
2023-01-18T16:28:38.103Z,8.60
2023-01-18T16:29:35.712Z,9.20
2023-01-18T16:30:36.531Z,9.70
2023-01-18T16:31:35.658Z,7.00
2023-01-18T16:32:35.978Z,8.20
2023-01-18T16:33:36.255Z,7.30
2023-01-18T16:34:35.599Z,8.20
2023-01-18T16:35:35.942Z,6.80
2023-01-18T16:36:42.547Z,7.00
2023-01-18T16:37:36.780Z,7.40
2023-01-18T16:38:35.554Z,8.10
2023-01-18T16:39:35.506Z,8.20
2023-01-18T16:40:35.584Z,8.50
2023-01-18T16:41:35.614Z,6.50
2023-01-18T16:42:38.541Z,6.80
2023-01-18T16:43:35.662Z,8.60
2023-01-18T16:44:36.236Z,12.50
2023-01-18T16:45:35.571Z,8.20
2023-01-18T16:46:35.513Z,7.90
2023-01-18T16:47:35.463Z,8.10
2023-01-18T16:48:35.596Z,8.90
2023-01-18T16:49:36.585Z,9.40
2023-01-18T16:50:35.570Z,6.70
2023-01-18T16:51:35.489Z,7.40
2023-01-18T16:52:35.816Z,8.20
2023-01-18T16:53:35.347Z,7.20
2023-01-18T16:54:35.426Z,7.70
2023-01-18T16:55:35.588Z,7.00
2023-01-18T16:56:35.300Z,8.20
2023-01-18T16:57:35.355Z,8.00
2023-01-18T16:58:35.534Z,9.20
2023-01-18T16:59:35.336Z,7.90
2023-01-18T17:00:35.412Z,7.80
2023-01-18T17:01:35.310Z,9.50
2023-01-18T17:02:36.293Z,6.70
2023-01-18T17:03:35.203Z,8.50
2023-01-18T17:04:35.366Z,8.70
2023-01-18T17:05:35.268Z,7.30
2023-01-18T17:06:35.273Z,7.50
2023-01-18T17:07:35.396Z,6.80
2023-01-18T17:08:35.235Z,7.70
2023-01-18T17:09:47.350Z,8.50
2023-01-18T17:10:35.238Z,7.20
2023-01-18T17:11:36.110Z,7.50
2023-01-18T17:12:35.268Z,9.90
2023-01-18T17:13:35.147Z,6.90
2023-01-18T17:14:35.731Z,9.50
2023-01-18T17:15:35.711Z,7.60
2023-01-18T17:16:35.124Z,8.40
2023-01-18T17:17:35.108Z,10.20
2023-01-18T17:18:35.152Z,7.40
2023-01-18T17:19:35.035Z,9.80
2023-01-18T17:20:35.776Z,8.40
2023-01-18T17:21:35.329Z,7.60
2023-01-18T17:22:35.394Z,8.50
2023-01-18T17:23:35.068Z,9.60
2023-01-18T17:24:35.225Z,8.10
2023-01-18T17:25:35.094Z,9.60
2023-01-18T17:26:35.358Z,8.20
2023-01-18T17:27:35.660Z,7.30
2023-01-18T17:28:35.411Z,7.80
2023-01-18T17:29:34.970Z,8.80
2023-01-18T17:30:35.170Z,9.10
2023-01-18T17:31:35.381Z,7.40
2023-01-18T17:32:35.124Z,7.60
2023-01-18T17:33:34.974Z,7.70
2023-01-18T17:34:35.003Z,7.90
2023-01-18T17:35:34.898Z,7.60
2023-01-18T17:36:35.787Z,6.60
2023-01-18T17:37:35.649Z,8.50
2023-01-18T17:38:35.118Z,8.50
2023-01-18T17:39:44.293Z,9.00
2023-01-18T17:40:41.797Z,6.90
2023-01-18T17:41:35.033Z,7.40
2023-01-18T17:42:34.977Z,8.30
2023-01-18T17:43:35.105Z,11.70
2023-01-18T17:44:37.383Z,9.80
2023-01-18T17:45:34.995Z,11.70
2023-01-18T17:46:35.687Z,10.80
2023-01-18T17:47:35.672Z,10.60
2023-01-18T17:48:34.826Z,9.40
2023-01-18T17:49:34.726Z,10.70
2023-01-18T17:50:34.760Z,8.40
2023-01-18T17:51:35.512Z,10.60
2023-01-18T17:52:36.706Z,10.90
2023-01-18T17:53:34.840Z,11.50
2023-01-18T17:54:34.708Z,10.20
2023-01-18T17:55:35.252Z,10.20
2023-01-18T17:56:35.043Z,12.10
2023-01-18T17:57:34.679Z,10.40
2023-01-18T17:58:34.883Z,11.40
2023-01-18T17:59:34.758Z,10.60
2023-01-18T18:00:35.603Z,12.90
2023-01-18T18:01:35.782Z,11.10
2023-01-18T18:02:34.736Z,10.70
2023-01-18T18:03:35.244Z,11.90
2023-01-18T18:04:34.586Z,10.50
2023-01-18T18:05:35.003Z,11.00
2023-01-18T18:06:36.404Z,12.00
2023-01-18T18:07:34.515Z,10.50
2023-01-18T18:08:34.618Z,10.10
2023-01-18T18:09:34.634Z,9.30
2023-01-18T18:10:34.528Z,13.20
2023-01-18T18:11:35.345Z,12.00
2023-01-18T18:12:34.793Z,10.90
2023-01-18T18:13:34.528Z,10.30
2023-01-18T18:14:34.527Z,12.40
2023-01-18T18:29:53.125Z,11.00
2023-01-18T18:30:54.011Z,10.80
2023-01-18T18:31:53.727Z,12.40
2023-01-18T18:32:53.695Z,11.30
2023-01-18T18:33:53.757Z,11.90
2023-01-18T18:34:53.735Z,11.80
2023-01-18T18:35:53.673Z,10.10
2023-01-18T18:36:53.961Z,9.90
2023-01-18T18:37:53.813Z,10.50
2023-01-18T18:38:54.582Z,11.40
2023-01-18T18:39:53.604Z,9.20
2023-01-18T18:40:53.749Z,12.90
2023-01-18T18:41:54.075Z,10.60
2023-01-18T18:43:01.829Z,11.00
2023-01-18T18:43:53.619Z,10.60
2023-01-18T18:44:53.623Z,10.60
2023-01-18T18:45:53.783Z,10.30
2023-01-18T18:46:53.557Z,11.30
2023-01-18T18:47:53.506Z,10.30
2023-01-18T18:48:53.563Z,11.80
2023-01-18T18:49:53.507Z,10.60
2023-01-18T18:50:53.520Z,13.30
2023-01-18T18:51:53.930Z,10.10
2023-01-18T18:52:54.651Z,9.50
2023-01-18T18:53:54.217Z,11.20
2023-01-18T18:54:53.806Z,11.80
2023-01-18T18:55:54.041Z,12.50
2023-01-18T18:56:53.469Z,13.00
2023-01-18T18:57:54.228Z,12.90